Погода Фарасанна неделю

Асир, Саудовская Аравия

21 - 27 февраля
  • 21февраля
    Сегодня
    +25°
    +31°
    Практически безоблачно
    ВремяПогодаТемператураВлажностьДавлениеВетер, м/сВероятность осадков
    00:00Ясно и безоблачно+25°C81 %759 мм1.6 м/с1 %
    03:00Ясно и безоблачно+25°C85 %757 мм2.3 м/с1 %
    06:00Ясно и безоблачно+25°C85 %758 мм1.8 м/с1 %
    09:00Ясно и безоблачно+27°C76 %760 мм1.2 м/с1 %
    12:00Практически безоблачно+29°C65 %759 мм3.3 м/с1 %
    15:00Практически безоблачно+31°C60 %757 мм4.5 м/с1 %
    18:00Ясно и безоблачно+28°C70 %758 мм3.0 м/с1 %
    21:00Ясно и безоблачно+26°C75 %758 мм1.5 м/с1 %
  • 22февраля
    Четверг
    +25°
    +30°
    Практически безоблачно
    ВремяПогодаТемператураВлажностьДавлениеВетер, м/сВероятность осадков
    00:00Облачно с прояснениями+26°C80 %759 мм2.5 м/с1 %
    03:00Практически безоблачно+25°C84 %758 мм2.7 м/с1 %
    06:00Ясно и безоблачно+26°C84 %759 мм1.1 м/с1 %
    09:00Облачно с прояснениями+28°C77 %760 мм0.6 м/с1 %
    12:00Облачно с прояснениями+30°C68 %759 мм4.1 м/с2 %
    15:00Практически безоблачно+30°C70 %757 мм4.4 м/с1 %
    18:00Ясно и безоблачно+27°C77 %758 мм2.2 м/с1 %
    21:00Ясно и безоблачно+26°C82 %759 мм3.7 м/с1 %
  • 23февраля
    Пятница
    +26°
    +30°
    Ясно и безоблачно
    ВремяПогодаТемператураВлажностьДавлениеВетер, м/сВероятность осадков
    00:00Практически безоблачно+26°C81 %758 мм4.2 м/с1 %
    03:00Практически безоблачно+26°C85 %757 мм2.7 м/с1 %
    06:00Практически безоблачно+26°C85 %758 мм4.1 м/с1 %
    09:00Практически безоблачно+28°C78 %760 мм4.6 м/с1 %
    12:00Ясно и безоблачно+29°C71 %759 мм6.8 м/с1 %
    15:00Ясно и безоблачно+30°C62 %757 мм6.4 м/с1 %
    18:00Ясно и безоблачно+28°C64 %758 мм4.9 м/с1 %
    21:00Практически безоблачно+27°C72 %759 мм4.3 м/с1 %
  • 24февраля
    Суббота
    +25°
    +30°
    Ясно и безоблачно
    ВремяПогодаТемператураВлажностьДавлениеВетер, м/сВероятность осадков
    00:00Ясно и безоблачно+27°C78 %759 мм5.1 м/с1 %
    03:00Практически безоблачно+27°C80 %758 мм5.2 м/с1 %
    06:00Ясно и безоблачно+26°C87 %758 мм4.7 м/с1 %
    09:00Ясно и безоблачно+28°C77 %759 мм5.2 м/с1 %
    12:00Ясно и безоблачно+29°C69 %759 мм6.4 м/с1 %
    15:00Ясно и безоблачно+30°C69 %758 мм6.0 м/с1 %
    18:00Ясно и безоблачно+28°C67 %758 мм4.0 м/с1 %
    21:00Ясно и безоблачно+26°C75 %758 мм2.8 м/с1 %
  • 25февраля
    Воскресенье
    +25°
    +30°
    Практически безоблачно
    ВремяПогодаТемператураВлажностьДавлениеВетер, м/сВероятность осадков
    00:00Ясно и безоблачно+26°C87 %758 мм2.6 м/с1 %
    03:00Ясно и безоблачно+26°C87 %757 мм4.1 м/с1 %
    06:00Ясно и безоблачно+26°C89 %757 мм4.8 м/с1 %
    09:00Ясно и безоблачно+27°C80 %758 мм5.7 м/с1 %
    12:00Практически безоблачно+29°C71 %758 мм4.3 м/с1 %
    15:00Практически безоблачно+30°C69 %756 мм3.1 м/с1 %
    18:00Ясно и безоблачно+28°C70 %756 мм1.2 м/с1 %
    21:00Ясно и безоблачно+27°C78 %756 мм2.6 м/с1 %
Мы используем cookies
Соглашаюсь